sensor_id;sensor_type;location;lat;lon;timestamp;P1;durP1;ratioP1;P2;durP2;ratioP2
20336;SDS011;10326;53.660;10.200;2023-05-27T00:00:43;6.28;;;2.78;;
20336;SDS011;10326;53.660;10.200;2023-05-27T00:03:10;5.25;;;2.50;;
20336;SDS011;10326;53.660;10.200;2023-05-27T00:05:45;9.75;;;3.00;;
20336;SDS011;10326;53.660;10.200;2023-05-27T00:08:12;7.95;;;3.22;;
20336;SDS011;10326;53.660;10.200;2023-05-27T00:10:40;7.15;;;2.85;;
20336;SDS011;10326;53.660;10.200;2023-05-27T00:13:07;6.38;;;2.35;;
20336;SDS011;10326;53.660;10.200;2023-05-27T00:15:34;6.10;;;2.58;;
20336;SDS011;10326;53.660;10.200;2023-05-27T00:18:01;6.43;;;3.15;;
20336;SDS011;10326;53.660;10.200;2023-05-27T00:20:29;6.20;;;2.72;;
20336;SDS011;10326;53.660;10.200;2023-05-27T00:22:58;6.75;;;2.72;;
20336;SDS011;10326;53.660;10.200;2023-05-27T00:25:26;4.85;;;2.60;;
20336;SDS011;10326;53.660;10.200;2023-05-27T00:27:53;8.10;;;2.53;;
20336;SDS011;10326;53.660;10.200;2023-05-27T00:30:21;6.70;;;3.05;;
20336;SDS011;10326;53.660;10.200;2023-05-27T00:32:48;9.70;;;2.90;;
20336;SDS011;10326;53.660;10.200;2023-05-27T00:35:16;6.25;;;3.03;;
20336;SDS011;10326;53.660;10.200;2023-05-27T00:37:44;7.28;;;3.10;;
20336;SDS011;10326;53.660;10.200;2023-05-27T00:40:12;6.30;;;2.67;;
20336;SDS011;10326;53.660;10.200;2023-05-27T00:42:44;8.02;;;3.15;;
20336;SDS011;10326;53.660;10.200;2023-05-27T00:45:11;8.75;;;3.65;;
20336;SDS011;10326;53.660;10.200;2023-05-27T00:47:39;4.18;;;2.47;;
20336;SDS011;10326;53.660;10.200;2023-05-27T00:50:06;6.57;;;2.60;;
20336;SDS011;10326;53.660;10.200;2023-05-27T00:52:36;6.55;;;3.00;;
20336;SDS011;10326;53.660;10.200;2023-05-27T00:55:03;6.78;;;2.80;;
20336;SDS011;10326;53.660;10.200;2023-05-27T00:57:36;6.70;;;2.40;;
20336;SDS011;10326;53.660;10.200;2023-05-27T01:00:04;5.93;;;3.08;;
20336;SDS011;10326;53.660;10.200;2023-05-27T01:02:35;6.25;;;2.80;;
20336;SDS011;10326;53.660;10.200;2023-05-27T01:05:07;7.82;;;2.83;;
20336;SDS011;10326;53.660;10.200;2023-05-27T01:07:37;6.38;;;3.00;;
20336;SDS011;10326;53.660;10.200;2023-05-27T01:10:23;7.22;;;3.10;;
20336;SDS011;10326;53.660;10.200;2023-05-27T01:12:58;9.77;;;3.28;;
20336;SDS011;10326;53.660;10.200;2023-05-27T01:15:27;8.25;;;2.83;;
20336;SDS011;10326;53.660;10.200;2023-05-27T01:17:56;6.80;;;2.85;;
20336;SDS011;10326;53.660;10.200;2023-05-27T01:20:27;6.80;;;2.92;;
20336;SDS011;10326;53.660;10.200;2023-05-27T01:22:56;7.05;;;2.95;;
20336;SDS011;10326;53.660;10.200;2023-05-27T01:25:24;8.10;;;3.17;;
20336;SDS011;10326;53.660;10.200;2023-05-27T01:27:54;5.70;;;3.00;;
20336;SDS011;10326;53.660;10.200;2023-05-27T01:30:21;7.40;;;2.88;;
20336;SDS011;10326;53.660;10.200;2023-05-27T01:32:50;7.63;;;3.15;;
20336;SDS011;10326;53.660;10.200;2023-05-27T01:35:29;6.15;;;2.85;;
20336;SDS011;10326;53.660;10.200;2023-05-27T01:38:04;12.68;;;3.00;;
20336;SDS011;10326;53.660;10.200;2023-05-27T01:40:37;7.65;;;2.97;;
20336;SDS011;10326;53.660;10.200;2023-05-27T01:43:05;4.32;;;2.60;;
20336;SDS011;10326;53.660;10.200;2023-05-27T01:45:34;8.30;;;3.30;;
20336;SDS011;10326;53.660;10.200;2023-05-27T01:48:01;5.40;;;3.05;;
20336;SDS011;10326;53.660;10.200;2023-05-27T01:50:29;4.00;;;2.40;;
20336;SDS011;10326;53.660;10.200;2023-05-27T01:52:58;3.65;;;2.45;;
20336;SDS011;10326;53.660;10.200;2023-05-27T01:55:27;4.32;;;2.53;;
20336;SDS011;10326;53.660;10.200;2023-05-27T01:57:55;6.25;;;2.47;;
20336;SDS011;10326;53.660;10.200;2023-05-27T02:00:23;5.15;;;2.30;;
20336;SDS011;10326;53.660;10.200;2023-05-27T02:02:51;4.43;;;2.50;;
20336;SDS011;10326;53.660;10.200;2023-05-27T02:05:19;3.33;;;1.88;;
20336;SDS011;10326;53.660;10.200;2023-05-27T02:07:46;4.22;;;1.90;;
20336;SDS011;10326;53.660;10.200;2023-05-27T02:10:13;3.67;;;2.30;;
20336;SDS011;10326;53.660;10.200;2023-05-27T02:12:42;5.07;;;2.50;;
20336;SDS011;10326;53.660;10.200;2023-05-27T02:15:11;5.88;;;2.65;;
20336;SDS011;10326;53.660;10.200;2023-05-27T02:17:38;7.05;;;2.85;;
20336;SDS011;10326;53.660;10.200;2023-05-27T02:20:06;4.93;;;2.97;;
20336;SDS011;10326;53.660;10.200;2023-05-27T02:22:34;6.55;;;3.00;;
20336;SDS011;10326;53.660;10.200;2023-05-27T02:25:02;7.05;;;2.85;;
20336;SDS011;10326;53.660;10.200;2023-05-27T02:27:29;7.60;;;2.80;;
20336;SDS011;10326;53.660;10.200;2023-05-27T02:29:58;5.63;;;2.80;;
20336;SDS011;10326;53.660;10.200;2023-05-27T02:32:25;5.40;;;2.53;;
20336;SDS011;10326;53.660;10.200;2023-05-27T02:34:52;4.38;;;2.65;;
20336;SDS011;10326;53.660;10.200;2023-05-27T02:37:20;4.78;;;2.55;;
20336;SDS011;10326;53.660;10.200;2023-05-27T02:39:47;5.78;;;2.97;;
20336;SDS011;10326;53.660;10.200;2023-05-27T02:42:14;5.22;;;2.88;;
20336;SDS011;10326;53.660;10.200;2023-05-27T02:44:42;4.03;;;2.67;;
20336;SDS011;10326;53.660;10.200;2023-05-27T02:47:10;8.10;;;3.25;;
20336;SDS011;10326;53.660;10.200;2023-05-27T02:49:39;8.38;;;2.95;;
20336;SDS011;10326;53.660;10.200;2023-05-27T02:52:06;5.22;;;2.67;;
20336;SDS011;10326;53.660;10.200;2023-05-27T02:54:34;9.07;;;3.40;;
20336;SDS011;10326;53.660;10.200;2023-05-27T02:57:01;8.63;;;3.08;;
20336;SDS011;10326;53.660;10.200;2023-05-27T02:59:29;8.07;;;3.60;;
20336;SDS011;10326;53.660;10.200;2023-05-27T03:01:56;6.30;;;3.03;;
20336;SDS011;10326;53.660;10.200;2023-05-27T03:04:24;7.20;;;3.17;;
20336;SDS011;10326;53.660;10.200;2023-05-27T03:06:52;7.68;;;3.05;;
20336;SDS011;10326;53.660;10.200;2023-05-27T03:09:19;4.88;;;2.70;;
20336;SDS011;10326;53.660;10.200;2023-05-27T03:11:46;4.65;;;2.45;;
20336;SDS011;10326;53.660;10.200;2023-05-27T03:14:14;5.30;;;3.40;;
20336;SDS011;10326;53.660;10.200;2023-05-27T03:16:41;6.72;;;3.10;;
20336;SDS011;10326;53.660;10.200;2023-05-27T03:19:08;6.05;;;2.97;;
20336;SDS011;10326;53.660;10.200;2023-05-27T03:21:37;6.72;;;2.80;;
20336;SDS011;10326;53.660;10.200;2023-05-27T03:24:04;6.40;;;3.33;;
20336;SDS011;10326;53.660;10.200;2023-05-27T03:26:32;4.70;;;3.15;;
20336;SDS011;10326;53.660;10.200;2023-05-27T03:29:03;7.50;;;3.30;;
20336;SDS011;10326;53.660;10.200;2023-05-27T03:31:31;7.05;;;3.55;;
20336;SDS011;10326;53.660;10.200;2023-05-27T03:34:03;5.85;;;3.45;;
20336;SDS011;10326;53.660;10.200;2023-05-27T03:36:31;5.72;;;2.90;;
20336;SDS011;10326;53.660;10.200;2023-05-27T03:39:01;7.00;;;3.20;;
20336;SDS011;10326;53.660;10.200;2023-05-27T03:41:32;7.28;;;3.40;;
20336;SDS011;10326;53.660;10.200;2023-05-27T03:43:59;8.13;;;3.55;;
20336;SDS011;10326;53.660;10.200;2023-05-27T03:46:27;6.38;;;3.35;;
20336;SDS011;10326;53.660;10.200;2023-05-27T03:48:55;8.35;;;3.15;;
20336;SDS011;10326;53.660;10.200;2023-05-27T03:51:22;5.75;;;3.05;;
20336;SDS011;10326;53.660;10.200;2023-05-27T03:53:50;7.28;;;3.20;;
20336;SDS011;10326;53.660;10.200;2023-05-27T03:56:18;5.72;;;3.15;;
20336;SDS011;10326;53.660;10.200;2023-05-27T03:58:46;8.30;;;3.25;;
20336;SDS011;10326;53.660;10.200;2023-05-27T04:01:14;6.72;;;3.08;;
20336;SDS011;10326;53.660;10.200;2023-05-27T04:03:42;5.07;;;3.25;;
20336;SDS011;10326;53.660;10.200;2023-05-27T04:06:11;7.25;;;3.13;;
20336;SDS011;10326;53.660;10.200;2023-05-27T04:08:39;4.88;;;2.80;;
20336;SDS011;10326;53.660;10.200;2023-05-27T04:11:09;7.28;;;3.20;;
20336;SDS011;10326;53.660;10.200;2023-05-27T04:13:40;8.70;;;3.33;;
20336;SDS011;10326;53.660;10.200;2023-05-27T04:16:07;5.03;;;2.72;;
20336;SDS011;10326;53.660;10.200;2023-05-27T04:18:35;6.38;;;3.38;;
20336;SDS011;10326;53.660;10.200;2023-05-27T04:21:03;6.10;;;2.97;;
20336;SDS011;10326;53.660;10.200;2023-05-27T04:23:30;7.53;;;3.65;;
20336;SDS011;10326;53.660;10.200;2023-05-27T04:25:58;5.72;;;2.97;;
20336;SDS011;10326;53.660;10.200;2023-05-27T04:28:31;8.02;;;3.08;;
20336;SDS011;10326;53.660;10.200;2023-05-27T04:31:00;6.68;;;3.20;;
20336;SDS011;10326;53.660;10.200;2023-05-27T04:33:41;6.38;;;2.83;;
20336;SDS011;10326;53.660;10.200;2023-05-27T04:36:10;7.15;;;3.20;;
20336;SDS011;10326;53.660;10.200;2023-05-27T04:39:05;5.75;;;2.65;;
20336;SDS011;10326;53.660;10.200;2023-05-27T04:41:34;5.97;;;2.88;;
20336;SDS011;10326;53.660;10.200;2023-05-27T04:44:03;9.40;;;3.30;;
20336;SDS011;10326;53.660;10.200;2023-05-27T04:46:37;7.53;;;3.53;;
20336;SDS011;10326;53.660;10.200;2023-05-27T04:49:06;9.00;;;3.90;;
20336;SDS011;10326;53.660;10.200;2023-05-27T04:51:33;10.13;;;3.70;;
20336;SDS011;10326;53.660;10.200;2023-05-27T04:54:02;8.25;;;3.78;;
20336;SDS011;10326;53.660;10.200;2023-05-27T04:56:32;6.72;;;3.47;;
20336;SDS011;10326;53.660;10.200;2023-05-27T04:59:02;7.85;;;4.00;;
20336;SDS011;10326;53.660;10.200;2023-05-27T05:01:32;8.52;;;3.55;;
20336;SDS011;10326;53.660;10.200;2023-05-27T05:04:22;9.52;;;3.65;;
20336;SDS011;10326;53.660;10.200;2023-05-27T05:06:53;10.35;;;4.22;;
20336;SDS011;10326;53.660;10.200;2023-05-27T05:09:22;9.52;;;4.38;;
20336;SDS011;10326;53.660;10.200;2023-05-27T05:11:50;8.93;;;3.90;;
20336;SDS011;10326;53.660;10.200;2023-05-27T05:14:17;13.57;;;4.10;;
20336;SDS011;10326;53.660;10.200;2023-05-27T05:16:45;10.60;;;3.95;;
20336;SDS011;10326;53.660;10.200;2023-05-27T05:19:13;8.68;;;4.15;;
20336;SDS011;10326;53.660;10.200;2023-05-27T05:21:43;12.93;;;4.22;;
20336;SDS011;10326;53.660;10.200;2023-05-27T05:24:12;9.27;;;3.90;;
20336;SDS011;10326;53.660;10.200;2023-05-27T05:26:41;9.35;;;4.03;;
20336;SDS011;10326;53.660;10.200;2023-05-27T05:29:09;8.90;;;4.10;;
20336;SDS011;10326;53.660;10.200;2023-05-27T05:31:37;9.13;;;3.97;;
20336;SDS011;10326;53.660;10.200;2023-05-27T05:34:04;11.82;;;4.18;;
20336;SDS011;10326;53.660;10.200;2023-05-27T05:36:33;9.82;;;4.25;;
20336;SDS011;10326;53.660;10.200;2023-05-27T05:39:06;10.85;;;4.22;;
20336;SDS011;10326;53.660;10.200;2023-05-27T05:41:37;8.93;;;3.85;;
20336;SDS011;10326;53.660;10.200;2023-05-27T05:44:05;10.73;;;4.25;;
20336;SDS011;10326;53.660;10.200;2023-05-27T05:46:33;10.65;;;4.53;;
20336;SDS011;10326;53.660;10.200;2023-05-27T05:49:00;11.85;;;4.03;;
20336;SDS011;10326;53.660;10.200;2023-05-27T05:51:38;9.02;;;4.65;;
20336;SDS011;10326;53.660;10.200;2023-05-27T05:54:07;11.27;;;4.28;;
20336;SDS011;10326;53.660;10.200;2023-05-27T05:56:40;8.07;;;3.78;;
20336;SDS011;10326;53.660;10.200;2023-05-27T05:59:08;10.88;;;3.95;;
20336;SDS011;10326;53.660;10.200;2023-05-27T06:01:35;11.15;;;4.15;;
20336;SDS011;10326;53.660;10.200;2023-05-27T06:04:02;7.82;;;3.60;;
20336;SDS011;10326;53.660;10.200;2023-05-27T06:06:40;10.27;;;4.00;;
20336;SDS011;10326;53.660;10.200;2023-05-27T06:09:28;10.10;;;4.05;;
20336;SDS011;10326;53.660;10.200;2023-05-27T06:12:00;8.15;;;3.92;;
20336;SDS011;10326;53.660;10.200;2023-05-27T06:14:33;8.57;;;4.03;;
20336;SDS011;10326;53.660;10.200;2023-05-27T06:17:00;10.25;;;3.67;;
20336;SDS011;10326;53.660;10.200;2023-05-27T06:19:28;8.32;;;4.15;;
20336;SDS011;10326;53.660;10.200;2023-05-27T06:21:56;9.93;;;4.47;;
20336;SDS011;10326;53.660;10.200;2023-05-27T06:24:30;8.18;;;3.70;;
20336;SDS011;10326;53.660;10.200;2023-05-27T06:27:07;7.22;;;3.75;;
20336;SDS011;10326;53.660;10.200;2023-05-27T06:29:34;9.68;;;3.60;;
20336;SDS011;10326;53.660;10.200;2023-05-27T06:32:01;12.82;;;4.50;;
20336;SDS011;10326;53.660;10.200;2023-05-27T06:34:30;7.07;;;3.50;;
20336;SDS011;10326;53.660;10.200;2023-05-27T06:36:58;7.10;;;3.45;;
20336;SDS011;10326;53.660;10.200;2023-05-27T06:39:25;9.27;;;3.60;;
20336;SDS011;10326;53.660;10.200;2023-05-27T06:41:53;9.23;;;3.88;;
20336;SDS011;10326;53.660;10.200;2023-05-27T06:44:42;8.93;;;4.30;;
20336;SDS011;10326;53.660;10.200;2023-05-27T06:47:15;8.15;;;3.95;;
20336;SDS011;10326;53.660;10.200;2023-05-27T06:49:43;13.18;;;3.90;;
20336;SDS011;10326;53.660;10.200;2023-05-27T06:52:11;8.13;;;3.95;;
20336;SDS011;10326;53.660;10.200;2023-05-27T06:54:58;7.18;;;3.42;;
20336;SDS011;10326;53.660;10.200;2023-05-27T06:57:46;9.80;;;3.90;;
20336;SDS011;10326;53.660;10.200;2023-05-27T07:00:19;8.65;;;3.97;;
20336;SDS011;10326;53.660;10.200;2023-05-27T07:03:05;8.35;;;3.60;;
20336;SDS011;10326;53.660;10.200;2023-05-27T07:05:32;8.05;;;3.33;;
20336;SDS011;10326;53.660;10.200;2023-05-27T07:08:00;9.70;;;3.35;;
20336;SDS011;10326;53.660;10.200;2023-05-27T07:10:27;7.75;;;3.28;;
20336;SDS011;10326;53.660;10.200;2023-05-27T07:12:55;8.27;;;3.50;;
20336;SDS011;10326;53.660;10.200;2023-05-27T07:15:36;10.60;;;4.13;;
20336;SDS011;10326;53.660;10.200;2023-05-27T07:18:03;10.27;;;3.70;;
20336;SDS011;10326;53.660;10.200;2023-05-27T07:20:32;8.18;;;3.63;;
20336;SDS011;10326;53.660;10.200;2023-05-27T07:23:03;11.40;;;3.95;;
20336;SDS011;10326;53.660;10.200;2023-05-27T07:25:32;6.63;;;3.28;;
20336;SDS011;10326;53.660;10.200;2023-05-27T07:28:01;8.88;;;3.50;;
20336;SDS011;10326;53.660;10.200;2023-05-27T07:30:29;11.70;;;3.40;;
20336;SDS011;10326;53.660;10.200;2023-05-27T07:33:00;9.25;;;3.45;;
20336;SDS011;10326;53.660;10.200;2023-05-27T07:35:29;9.35;;;3.30;;
20336;SDS011;10326;53.660;10.200;2023-05-27T07:38:04;8.75;;;2.95;;
20336;SDS011;10326;53.660;10.200;2023-05-27T07:40:31;10.20;;;3.30;;
20336;SDS011;10326;53.660;10.200;2023-05-27T07:42:58;10.68;;;2.92;;
20336;SDS011;10326;53.660;10.200;2023-05-27T07:45:29;10.40;;;3.75;;
20336;SDS011;10326;53.660;10.200;2023-05-27T07:47:56;11.60;;;3.90;;
20336;SDS011;10326;53.660;10.200;2023-05-27T07:50:24;10.88;;;3.60;;
20336;SDS011;10326;53.660;10.200;2023-05-27T07:52:57;6.53;;;3.47;;
20336;SDS011;10326;53.660;10.200;2023-05-27T07:55:28;8.20;;;3.67;;
20336;SDS011;10326;53.660;10.200;2023-05-27T07:57:55;7.03;;;3.13;;
20336;SDS011;10326;53.660;10.200;2023-05-27T08:00:28;7.88;;;3.33;;
20336;SDS011;10326;53.660;10.200;2023-05-27T08:02:56;10.07;;;3.25;;
20336;SDS011;10326;53.660;10.200;2023-05-27T08:05:52;13.90;;;3.35;;
20336;SDS011;10326;53.660;10.200;2023-05-27T08:08:41;8.60;;;3.28;;
20336;SDS011;10326;53.660;10.200;2023-05-27T08:11:33;9.68;;;2.80;;
20336;SDS011;10326;53.660;10.200;2023-05-27T08:14:21;7.53;;;3.13;;
20336;SDS011;10326;53.660;10.200;2023-05-27T08:17:15;11.30;;;3.55;;
20336;SDS011;10326;53.660;10.200;2023-05-27T08:20:00;8.98;;;3.35;;
20336;SDS011;10326;53.660;10.200;2023-05-27T08:22:41;7.30;;;3.10;;
20336;SDS011;10326;53.660;10.200;2023-05-27T08:25:30;11.13;;;3.70;;
20336;SDS011;10326;53.660;10.200;2023-05-27T08:28:18;6.55;;;2.65;;
20336;SDS011;10326;53.660;10.200;2023-05-27T08:30:50;8.43;;;3.20;;
20336;SDS011;10326;53.660;10.200;2023-05-27T08:33:22;7.97;;;3.20;;
20336;SDS011;10326;53.660;10.200;2023-05-27T08:35:50;6.90;;;2.90;;
20336;SDS011;10326;53.660;10.200;2023-05-27T08:38:30;9.85;;;3.22;;
20336;SDS011;10326;53.660;10.200;2023-05-27T08:41:09;9.75;;;3.45;;
20336;SDS011;10326;53.660;10.200;2023-05-27T08:43:37;7.90;;;3.15;;
20336;SDS011;10326;53.660;10.200;2023-05-27T08:46:05;11.27;;;3.33;;
20336;SDS011;10326;53.660;10.200;2023-05-27T08:48:36;8.25;;;2.65;;
20336;SDS011;10326;53.660;10.200;2023-05-27T08:51:04;6.93;;;3.15;;
20336;SDS011;10326;53.660;10.200;2023-05-27T08:53:32;7.63;;;2.95;;
20336;SDS011;10326;53.660;10.200;2023-05-27T08:56:01;6.50;;;3.25;;
20336;SDS011;10326;53.660;10.200;2023-05-27T08:58:31;11.43;;;3.63;;
20336;SDS011;10326;53.660;10.200;2023-05-27T09:01:01;10.95;;;3.10;;
20336;SDS011;10326;53.660;10.200;2023-05-27T09:03:29;8.85;;;3.15;;
20336;SDS011;10326;53.660;10.200;2023-05-27T09:05:59;8.20;;;3.20;;
20336;SDS011;10326;53.660;10.200;2023-05-27T09:08:30;10.68;;;3.75;;
20336;SDS011;10326;53.660;10.200;2023-05-27T09:10:57;8.55;;;3.63;;
20336;SDS011;10326;53.660;10.200;2023-05-27T09:13:25;9.23;;;3.67;;
20336;SDS011;10326;53.660;10.200;2023-05-27T09:15:57;8.70;;;3.25;;
20336;SDS011;10326;53.660;10.200;2023-05-27T09:18:26;7.18;;;3.15;;
20336;SDS011;10326;53.660;10.200;2023-05-27T09:20:55;7.20;;;3.15;;
20336;SDS011;10326;53.660;10.200;2023-05-27T09:23:24;10.35;;;3.85;;
20336;SDS011;10326;53.660;10.200;2023-05-27T09:25:52;7.80;;;3.50;;
20336;SDS011;10326;53.660;10.200;2023-05-27T09:28:20;8.10;;;3.50;;
20336;SDS011;10326;53.660;10.200;2023-05-27T09:30:51;7.55;;;3.10;;
20336;SDS011;10326;53.660;10.200;2023-05-27T09:33:26;9.40;;;3.22;;
20336;SDS011;10326;53.660;10.200;2023-05-27T09:35:53;10.07;;;3.30;;
20336;SDS011;10326;53.660;10.200;2023-05-27T09:38:29;7.40;;;3.30;;
20336;SDS011;10326;53.660;10.200;2023-05-27T09:40:56;9.10;;;3.72;;
20336;SDS011;10326;53.660;10.200;2023-05-27T09:43:24;6.95;;;3.30;;
20336;SDS011;10326;53.660;10.200;2023-05-27T09:45:52;7.63;;;3.10;;
20336;SDS011;10326;53.660;10.200;2023-05-27T09:48:27;8.98;;;3.50;;
20336;SDS011;10326;53.660;10.200;2023-05-27T09:50:57;5.20;;;3.00;;
20336;SDS011;10326;53.660;10.200;2023-05-27T09:53:25;10.68;;;3.65;;
20336;SDS011;10326;53.660;10.200;2023-05-27T09:55:55;8.40;;;3.42;;
20336;SDS011;10326;53.660;10.200;2023-05-27T09:58:23;10.77;;;3.65;;
20336;SDS011;10326;53.660;10.200;2023-05-27T10:00:55;5.68;;;3.40;;
20336;SDS011;10326;53.660;10.200;2023-05-27T10:03:23;8.23;;;3.60;;
20336;SDS011;10326;53.660;10.200;2023-05-27T10:05:54;6.95;;;3.15;;
20336;SDS011;10326;53.660;10.200;2023-05-27T10:08:22;9.20;;;3.65;;
20336;SDS011;10326;53.660;10.200;2023-05-27T10:10:51;8.85;;;3.20;;
20336;SDS011;10326;53.660;10.200;2023-05-27T10:13:19;7.95;;;3.55;;
20336;SDS011;10326;53.660;10.200;2023-05-27T10:15:50;7.57;;;3.40;;
20336;SDS011;10326;53.660;10.200;2023-05-27T10:18:21;7.50;;;3.38;;
20336;SDS011;10326;53.660;10.200;2023-05-27T10:20:50;8.88;;;3.80;;
20336;SDS011;10326;53.660;10.200;2023-05-27T10:23:19;7.88;;;3.78;;
20336;SDS011;10326;53.660;10.200;2023-05-27T10:25:51;8.00;;;3.20;;
20336;SDS011;10326;53.660;10.200;2023-05-27T10:28:27;8.82;;;3.88;;
20336;SDS011;10326;53.660;10.200;2023-05-27T10:31:04;9.07;;;3.33;;
20336;SDS011;10326;53.660;10.200;2023-05-27T10:33:34;6.93;;;3.42;;
20336;SDS011;10326;53.660;10.200;2023-05-27T10:36:04;8.27;;;3.50;;
20336;SDS011;10326;53.660;10.200;2023-05-27T10:38:36;7.70;;;3.05;;
20336;SDS011;10326;53.660;10.200;2023-05-27T10:41:05;7.80;;;3.20;;
20336;SDS011;10326;53.660;10.200;2023-05-27T10:43:34;6.47;;;3.13;;
20336;SDS011;10326;53.660;10.200;2023-05-27T10:46:03;7.55;;;3.78;;
20336;SDS011;10326;53.660;10.200;2023-05-27T10:48:33;8.18;;;3.35;;
20336;SDS011;10326;53.660;10.200;2023-05-27T10:51:00;7.20;;;3.20;;
20336;SDS011;10326;53.660;10.200;2023-05-27T10:53:28;6.88;;;3.08;;
20336;SDS011;10326;53.660;10.200;2023-05-27T10:55:57;6.85;;;3.35;;
20336;SDS011;10326;53.660;10.200;2023-05-27T10:58:25;6.57;;;3.10;;
20336;SDS011;10326;53.660;10.200;2023-05-27T11:00:55;6.78;;;3.00;;
20336;SDS011;10326;53.660;10.200;2023-05-27T11:03:23;7.15;;;3.22;;
20336;SDS011;10326;53.660;10.200;2023-05-27T11:05:59;6.57;;;3.35;;
20336;SDS011;10326;53.660;10.200;2023-05-27T11:08:28;7.38;;;3.38;;
20336;SDS011;10326;53.660;10.200;2023-05-27T11:10:57;6.25;;;3.10;;
20336;SDS011;10326;53.660;10.200;2023-05-27T11:13:29;7.03;;;2.97;;
20336;SDS011;10326;53.660;10.200;2023-05-27T11:16:00;6.15;;;3.05;;
20336;SDS011;10326;53.660;10.200;2023-05-27T11:18:34;6.22;;;3.17;;
20336;SDS011;10326;53.660;10.200;2023-05-27T11:21:02;8.55;;;3.22;;
20336;SDS011;10326;53.660;10.200;2023-05-27T11:23:34;8.38;;;3.88;;
20336;SDS011;10326;53.660;10.200;2023-05-27T11:26:12;6.25;;;3.05;;
20336;SDS011;10326;53.660;10.200;2023-05-27T11:28:50;6.72;;;3.53;;
20336;SDS011;10326;53.660;10.200;2023-05-27T11:31:23;5.43;;;2.63;;
20336;SDS011;10326;53.660;10.200;2023-05-27T11:33:55;6.22;;;2.95;;
20336;SDS011;10326;53.660;10.200;2023-05-27T11:36:25;5.75;;;3.20;;
20336;SDS011;10326;53.660;10.200;2023-05-27T11:38:54;5.38;;;2.67;;
20336;SDS011;10326;53.660;10.200;2023-05-27T11:41:24;7.70;;;3.03;;
20336;SDS011;10326;53.660;10.200;2023-05-27T11:43:55;6.35;;;2.88;;
20336;SDS011;10326;53.660;10.200;2023-05-27T11:46:33;6.32;;;3.47;;
20336;SDS011;10326;53.660;10.200;2023-05-27T11:49:08;6.55;;;3.28;;
20336;SDS011;10326;53.660;10.200;2023-05-27T11:51:37;7.88;;;3.00;;
20336;SDS011;10326;53.660;10.200;2023-05-27T11:54:06;9.25;;;3.40;;
20336;SDS011;10326;53.660;10.200;2023-05-27T11:56:35;5.47;;;3.20;;
20336;SDS011;10326;53.660;10.200;2023-05-27T11:59:02;8.13;;;2.65;;
20336;SDS011;10326;53.660;10.200;2023-05-27T12:01:31;6.97;;;3.10;;
20336;SDS011;10326;53.660;10.200;2023-05-27T12:03:58;5.55;;;3.13;;
20336;SDS011;10326;53.660;10.200;2023-05-27T12:06:25;7.53;;;2.97;;
20336;SDS011;10326;53.660;10.200;2023-05-27T12:08:52;5.63;;;3.03;;
20336;SDS011;10326;53.660;10.200;2023-05-27T12:11:20;7.30;;;3.22;;
20336;SDS011;10326;53.660;10.200;2023-05-27T12:13:47;11.82;;;3.10;;
20336;SDS011;10326;53.660;10.200;2023-05-27T12:16:16;5.18;;;2.53;;
20336;SDS011;10326;53.660;10.200;2023-05-27T12:18:45;7.40;;;3.45;;
20336;SDS011;10326;53.660;10.200;2023-05-27T12:21:12;7.70;;;2.92;;
20336;SDS011;10326;53.660;10.200;2023-05-27T12:23:40;5.70;;;3.10;;
20336;SDS011;10326;53.660;10.200;2023-05-27T12:26:08;7.53;;;3.08;;
20336;SDS011;10326;53.660;10.200;2023-05-27T12:28:35;5.45;;;3.03;;
20336;SDS011;10326;53.660;10.200;2023-05-27T12:31:03;6.72;;;3.25;;
20336;SDS011;10326;53.660;10.200;2023-05-27T12:33:30;6.28;;;2.90;;
20336;SDS011;10326;53.660;10.200;2023-05-27T12:35:59;8.20;;;2.97;;
20336;SDS011;10326;53.660;10.200;2023-05-27T12:38:28;7.07;;;2.95;;
20336;SDS011;10326;53.660;10.200;2023-05-27T12:40:55;6.00;;;2.88;;
20336;SDS011;10326;53.660;10.200;2023-05-27T12:43:23;6.80;;;2.90;;
20336;SDS011;10326;53.660;10.200;2023-05-27T12:45:50;6.30;;;3.10;;
20336;SDS011;10326;53.660;10.200;2023-05-27T12:48:18;6.68;;;2.88;;
20336;SDS011;10326;53.660;10.200;2023-05-27T12:50:46;6.15;;;3.28;;
20336;SDS011;10326;53.660;10.200;2023-05-27T12:53:14;4.40;;;2.92;;
20336;SDS011;10326;53.660;10.200;2023-05-27T12:55:42;5.40;;;2.60;;
20336;SDS011;10326;53.660;10.200;2023-05-27T12:58:10;5.47;;;2.65;;
20336;SDS011;10326;53.660;10.200;2023-05-27T13:00:37;6.57;;;2.88;;
20336;SDS011;10326;53.660;10.200;2023-05-27T13:03:05;7.18;;;2.78;;
20336;SDS011;10326;53.660;10.200;2023-05-27T13:05:32;10.05;;;3.40;;
20336;SDS011;10326;53.660;10.200;2023-05-27T13:08:00;6.00;;;2.80;;
20336;SDS011;10326;53.660;10.200;2023-05-27T13:10:31;6.43;;;3.08;;
20336;SDS011;10326;53.660;10.200;2023-05-27T13:12:58;6.20;;;3.10;;
20336;SDS011;10326;53.660;10.200;2023-05-27T13:15:27;4.25;;;2.80;;
20336;SDS011;10326;53.660;10.200;2023-05-27T13:17:55;4.90;;;2.78;;
20336;SDS011;10326;53.660;10.200;2023-05-27T13:20:24;6.55;;;2.90;;
20336;SDS011;10326;53.660;10.200;2023-05-27T13:22:54;7.82;;;3.35;;
20336;SDS011;10326;53.660;10.200;2023-05-27T13:25:25;8.57;;;3.28;;
20336;SDS011;10326;53.660;10.200;2023-05-27T13:27:55;8.52;;;3.03;;
20336;SDS011;10326;53.660;10.200;2023-05-27T13:30:23;7.30;;;3.38;;
20336;SDS011;10326;53.660;10.200;2023-05-27T13:32:50;5.47;;;2.70;;
20336;SDS011;10326;53.660;10.200;2023-05-27T13:35:18;5.22;;;2.50;;
20336;SDS011;10326;53.660;10.200;2023-05-27T13:37:45;5.53;;;2.53;;
20336;SDS011;10326;53.660;10.200;2023-05-27T13:40:13;5.40;;;2.95;;
20336;SDS011;10326;53.660;10.200;2023-05-27T13:42:40;5.00;;;2.53;;
20336;SDS011;10326;53.660;10.200;2023-05-27T13:45:09;7.78;;;3.13;;
20336;SDS011;10326;53.660;10.200;2023-05-27T13:47:36;6.35;;;3.20;;
20336;SDS011;10326;53.660;10.200;2023-05-27T13:50:06;6.00;;;3.00;;
20336;SDS011;10326;53.660;10.200;2023-05-27T13:52:34;7.72;;;3.35;;
20336;SDS011;10326;53.660;10.200;2023-05-27T13:55:01;6.05;;;3.00;;
20336;SDS011;10326;53.660;10.200;2023-05-27T13:57:29;4.13;;;2.55;;
20336;SDS011;10326;53.660;10.200;2023-05-27T13:59:56;6.55;;;2.80;;
20336;SDS011;10326;53.660;10.200;2023-05-27T14:02:25;6.63;;;3.00;;
20336;SDS011;10326;53.660;10.200;2023-05-27T14:04:52;4.35;;;2.65;;
20336;SDS011;10326;53.660;10.200;2023-05-27T14:07:20;5.45;;;2.67;;
20336;SDS011;10326;53.660;10.200;2023-05-27T14:09:48;4.47;;;2.53;;
20336;SDS011;10326;53.660;10.200;2023-05-27T14:12:15;5.15;;;3.00;;
20336;SDS011;10326;53.660;10.200;2023-05-27T14:14:42;5.93;;;3.10;;
20336;SDS011;10326;53.660;10.200;2023-05-27T14:17:09;6.13;;;2.97;;
20336;SDS011;10326;53.660;10.200;2023-05-27T14:19:38;5.82;;;2.67;;
20336;SDS011;10326;53.660;10.200;2023-05-27T14:22:05;5.18;;;2.65;;
20336;SDS011;10326;53.660;10.200;2023-05-27T14:24:32;5.82;;;2.90;;
20336;SDS011;10326;53.660;10.200;2023-05-27T14:27:01;5.22;;;3.30;;
20336;SDS011;10326;53.660;10.200;2023-05-27T14:29:28;5.03;;;2.67;;
20336;SDS011;10326;53.660;10.200;2023-05-27T14:31:56;9.45;;;3.08;;
20336;SDS011;10326;53.660;10.200;2023-05-27T14:34:24;4.68;;;2.58;;
20336;SDS011;10326;53.660;10.200;2023-05-27T14:36:53;5.85;;;2.90;;
20336;SDS011;10326;53.660;10.200;2023-05-27T14:39:20;4.88;;;2.80;;
20336;SDS011;10326;53.660;10.200;2023-05-27T14:41:47;5.45;;;2.60;;
20336;SDS011;10326;53.660;10.200;2023-05-27T14:44:15;6.35;;;2.80;;
20336;SDS011;10326;53.660;10.200;2023-05-27T14:46:42;6.78;;;2.88;;
20336;SDS011;10326;53.660;10.200;2023-05-27T14:49:09;4.85;;;2.70;;